Time;durP1;ratioP1;P1;durP2;ratioP2;P2;SDS_P1;SDS_P2;PMS_P1;PMS_P2;Temp;Humidity;BMP_temperature;BMP_pressure;BME280_temperature;BME280_humidity;BME280_pressure;Samples;Min_cycle;Max_cycle;Signal;HPM_P1;HPM_P2
2022/04/28 00:01:46;;;;;;;;;;;;;;;;;;5056988;28;19912;-42
2022/04/28 00:04:11;;;;;;;;;;;;;;;;;;5057238;28;19931;-42
2022/04/28 00:06:36;;;;;;;;;;;;;;;;;;5055690;28;20275;-42
2022/04/28 00:09:01;;;;;;;;;;;;;;;;;;5056626;28;20279;-42
2022/04/28 00:11:27;;;;;;;;;;;;;;;;;;5056829;28;19932;-42
2022/04/28 00:13:52;;;;;;;;;;;;;;;;;;5056837;28;19916;-43
2022/04/28 00:16:17;;;;;;;;;;;;;;;;;;5056975;28;20363;-42
2022/04/28 00:18:42;;;;;;;;;;;;;;;;;;5056564;28;20356;-42
2022/04/28 00:21:07;;;;;;;;;;;;;;;;;;5055325;28;20232;-42
2022/04/28 00:23:32;;;;;;;;;;;;;;;;;;5056491;28;20002;-42
2022/04/28 00:25:57;;;;;;;;;;;;;;;;;;5055649;28;19959;-44
2022/04/28 00:28:22;;;;;;;;;;;;;;;;;;5055725;28;19927;-42
2022/04/28 00:30:47;;;;;;;;;;;;;;;;;;5056030;28;19955;-43
2022/04/28 00:33:13;;;;;;;;;;;;;;;;;;5056055;28;19916;-42
2022/04/28 00:35:38;;;;;;;;;;;;;;;;;;5056086;28;19916;-42
2022/04/28 00:38:03;;;;;;;;;;;;;;;;;;5056031;28;19991;-42
2022/04/28 00:40:28;;;;;;;;;;;;;;;;;;5056174;28;19947;-43
2022/04/28 00:43:18;;;;;;;;;;;;;;;;;;5055651;28;20402;-42
2022/04/28 00:45:39;;;;;;;;;;;;;;;;;;5055907;28;19908;-42
2022/04/28 00:50:47;;;;;;;;;;;;;;;;;;5055750;28;19919;-42
2022/04/28 00:53:12;;;;;;;;;;;;;;;;;;5055664;28;19991;-42
2022/04/28 00:55:38;;;;;;;;;;;;;;;;;;5055697;28;20003;-43
2022/04/28 00:58:03;;;;;;;;;;;;;;;;;;5055901;28;19954;-42
2022/04/28 01:00:28;;;;;;;;;;;;;;;;;;5055991;28;19909;-43
2022/04/28 01:02:54;;;;;;;;;;;;;;;;;;5055735;28;19909;-42
2022/04/28 01:05:19;;;;;;;;;;;;;;;;;;5054673;28;19956;-42
2022/04/28 01:07:44;;;;;;;;;;;;;;;;;;5055375;28;20332;-42
2022/04/28 01:10:10;;;;;;;;;;;;;;;;;;5055641;28;19909;-42
2022/04/28 01:12:36;;;;;;;;;;;;;;;;;;5055579;28;20376;-44
2022/04/28 01:15:01;;;;;;;;;;;;;;;;;;5055272;28;19913;-42
2022/04/28 01:17:26;;;;;;;;;;;;;;;;;;5055390;28;19916;-43
2022/04/28 01:19:51;;;;;;;;;;;;;;;;;;5055216;28;19916;-43
2022/04/28 01:22:16;;;;;;;;;;;;;;;;;;5055492;28;19909;-43
2022/04/28 01:24:41;;;;;;;;;;;;;;;;;;5054893;28;20363;-43
2022/04/28 01:27:06;;;;;;;;;;;;;;;;;;5050452;22;19968;-43
2022/04/28 01:29:32;;;;;;;;;;;;;;;;;;5035582;28;19909;-42
2022/04/28 01:31:57;;;;;;;;;;;;;;;;;;5035623;28;19910;-43
2022/04/28 01:34:22;;;;;;;;;;;;;;;;;;5035437;28;19936;-43
2022/04/28 01:36:47;;;;;;;;;;;;;;;;;;5045165;28;19916;-42
2022/04/28 01:39:12;;;;;;;;;;;;;;;;;;5055176;28;19963;-42
2022/04/28 01:41:37;;;;;;;;;;;;;;;;;;5055244;28;19909;-43
2022/04/28 01:44:02;;;;;;;;;;;;;;;;;;5054961;28;19909;-43
2022/04/28 01:46:28;;;;;;;;;;;;;;;;;;5054936;28;19952;-43
2022/04/28 01:48:53;;;;;;;;;;;;;;;;;;5055075;28;19913;-43
2022/04/28 01:56:45;;;;;;;;;;;;;;;;;;5055234;28;20276;-43
2022/04/28 01:59:11;;;;;;;;;;;;;;;;;;5055147;28;19909;-42
2022/04/28 02:01:36;;;;;;;;;;;;;;;;;;5055195;28;19916;-43
2022/04/28 02:04:01;;;;;;;;;;;;;;;;;;5054905;28;19909;-42
2022/04/28 02:06:26;;;;;;;;;;;;;;;;;;5055001;28;19909;-42
2022/04/28 02:08:51;;;;;;;;;;;;;;;;;;5055149;28;20019;-42
2022/04/28 02:11:16;;;;;;;;;;;;;;;;;;5055022;28;19991;-43
2022/04/28 02:13:41;;;;;;;;;;;;;;;;;;5054729;28;20001;-42
2022/04/28 02:16:07;;;;;;;;;;;;;;;;;;5054670;28;20030;-42
2022/04/28 02:18:32;;;;;;;;;;;;;;;;;;5058919;28;19909;-42
2022/04/28 02:20:57;;;;;;;;;;;;;;;;;;5058969;28;19971;-43
2022/04/28 02:23:22;;;;;;;;;;;;;;;;;;5058876;28;20268;-43
2022/04/28 02:25:47;;;;;;;;;;;;;;;;;;5057464;28;19913;-43
2022/04/28 02:28:12;;;;;;;;;;;;;;;;;;5058407;28;19917;-42
2022/04/28 02:30:37;;;;;;;;;;;;;;;;;;5058758;28;19924;-43
2022/04/28 02:33:08;;;;;;;;;;;;;;;;;;5058422;28;19948;-43
2022/04/28 02:35:33;;;;;;;;;;;;;;;;;;5058672;28;19923;-42
2022/04/28 02:37:59;;;;;;;;;;;;;;;;;;5058169;28;19987;-43
2022/04/28 02:40:24;;;;;;;;;;;;;;;;;;5058502;28;19908;-42
2022/04/28 02:42:49;;;;;;;;;;;;;;;;;;5058263;28;19909;-42
2022/04/28 02:45:14;;;;;;;;;;;;;;;;;;5058435;28;19995;-42
2022/04/28 02:47:40;;;;;;;;;;;;;;;;;;5058326;28;19921;-43
2022/04/28 02:50:05;;;;;;;;;;;;;;;;;;5058348;28;19909;-42
2022/04/28 02:52:31;;;;;;;;;;;;;;;;;;5058260;28;19909;-43
2022/04/28 02:54:56;;;;;;;;;;;;;;;;;;5057920;28;19913;-44
2022/04/28 02:57:21;;;;;;;;;;;;;;;;;;5057595;28;20011;-42
2022/04/28 02:59:46;;;;;;;;;;;;;;;;;;5057905;28;20314;-44
2022/04/28 03:02:11;;;;;;;;;;;;;;;;;;5058167;28;19955;-42
2022/04/28 03:04:36;;;;;;;;;;;;;;;;;;5058339;28;19916;-42
2022/04/28 03:12:29;;;;;;;;;;;;;;;;;;5037919;28;19915;-42
2022/04/28 03:14:54;;;;;;;;;;;;;;;;;;5037737;28;19909;-43
2022/04/28 03:17:19;;;;;;;;;;;;;;;;;;5037929;28;19923;-42
2022/04/28 03:19:45;;;;;;;;;;;;;;;;;;5037902;28;20004;-43
2022/04/28 03:22:10;;;;;;;;;;;;;;;;;;5037777;28;19909;-44
2022/04/28 03:24:35;;;;;;;;;;;;;;;;;;5043892;28;19913;-42
2022/04/28 03:27:00;;;;;;;;;;;;;;;;;;5057578;28;19921;-43
2022/04/28 03:29:26;;;;;;;;;;;;;;;;;;5056490;28;19913;-42
2022/04/28 03:31:51;;;;;;;;;;;;;;;;;;5057688;28;20264;-42
2022/04/28 03:34:18;;;;;;;;;;;;;;;;;;5057406;28;19915;-42
2022/04/28 03:36:52;;;;;;;;;;;;;;;;;;5057092;28;19916;-42
2022/04/28 03:39:17;;;;;;;;;;;;;;;;;;5057604;28;19963;-42
2022/04/28 03:41:43;;;;;;;;;;;;;;;;;;5057444;28;19909;-42
2022/04/28 03:44:09;;;;;;;;;;;;;;;;;;5057559;28;20023;-43
2022/04/28 03:46:34;;;;;;;;;;;;;;;;;;5057564;28;19909;-42
2022/04/28 03:48:59;;;;;;;;;;;;;;;;;;5057535;28;19919;-42
2022/04/28 03:51:24;;;;;;;;;;;;;;;;;;5057470;28;19915;-43
2022/04/28 03:53:49;;;;;;;;;;;;;;;;;;5056945;28;19913;-42
2022/04/28 03:56:15;;;;;;;;;;;;;;;;;;5057617;28;20407;-42
2022/04/28 03:58:40;;;;;;;;;;;;;;;;;;5057592;28;19919;-42
2022/04/28 04:01:05;;;;;;;;;;;;;;;;;;5057133;28;20007;-42
2022/04/28 04:03:30;;;;;;;;;;;;;;;;;;5057081;28;19905;-42
2022/04/28 04:05:55;;;;;;;;;;;;;;;;;;5057095;28;19908;-42
2022/04/28 04:08:20;;;;;;;;;;;;;;;;;;5055613;28;19975;-42
2022/04/28 04:10:46;;;;;;;;;;;;;;;;;;5056599;28;19956;-43
2022/04/28 04:13:11;;;;;;;;;;;;;;;;;;5056851;28;19936;-42
2022/04/28 04:15:36;;;;;;;;;;;;;;;;;;5056822;28;20322;-42
2022/04/28 04:18:01;;;;;;;;;;;;;;;;;;5057242;28;20348;-42
2022/04/28 04:20:27;;;;;;;;;;;;;;;;;;5056933;28;19940;-42
2022/04/28 04:22:55;;;;;;;;;;;;;;;;;;5056701;28;19959;-41
2022/04/28 04:25:20;;;;;;;;;;;;;;;;;;5055952;28;20364;-43
2022/04/28 04:27:45;;;;;;;;;;;;;;;;;;5056022;28;19927;-43
2022/04/28 04:32:54;;;;;;;;;;;;;;;;;;5056790;28;20379;-42
2022/04/28 04:35:19;;;;;;;;;;;;;;;;;;5056677;28;19909;-42
2022/04/28 04:37:44;;;;;;;;;;;;;;;;;;5056337;28;20336;-43
2022/04/28 04:40:10;;;;;;;;;;;;;;;;;;5056264;28;20332;-42
2022/04/28 04:42:35;;;;;;;;;;;;;;;;;;5056339;28;19909;-42
2022/04/28 04:45:00;;;;;;;;;;;;;;;;;;5056041;28;19913;-43
2022/04/28 04:47:25;;;;;;;;;;;;;;;;;;5056236;28;19948;-41
2022/04/28 04:49:50;;;;;;;;;;;;;;;;;;5056624;28;19944;-42
2022/04/28 04:52:15;;;;;;;;;;;;;;;;;;5056250;28;19909;-42
2022/04/28 04:54:40;;;;;;;;;;;;;;;;;;5056153;28;19916;-41
2022/04/28 04:57:05;;;;;;;;;;;;;;;;;;5056161;28;19913;-42
2022/04/28 04:59:30;;;;;;;;;;;;;;;;;;5056007;28;19908;-43
2022/04/28 05:01:56;;;;;;;;;;;;;;;;;;5056099;28;19916;-41
2022/04/28 05:04:21;;;;;;;;;;;;;;;;;;5055905;28;19928;-42
2022/04/28 05:06:46;;;;;;;;;;;;;;;;;;5056236;28;19909;-42
2022/04/28 05:09:11;;;;;;;;;;;;;;;;;;5055990;28;20007;-41
2022/04/28 05:11:36;;;;;;;;;;;;;;;;;;5055788;28;20314;-41
2022/04/28 05:14:01;;;;;;;;;;;;;;;;;;5055777;28;19909;-41
2022/04/28 05:16:26;;;;;;;;;;;;;;;;;;5056220;28;19955;-42
2022/04/28 05:18:51;;;;;;;;;;;;;;;;;;5055794;28;19999;-42
2022/04/28 05:21:17;;;;;;;;;;;;;;;;;;5055918;28;19931;-42
2022/04/28 05:23:42;;;;;;;;;;;;;;;;;;5055760;28;19920;-42
2022/04/28 05:26:07;;;;;;;;;;;;;;;;;;5055384;28;19927;-41
2022/04/28 05:28:32;;;;;;;;;;;;;;;;;;5055855;28;19912;-41
2022/04/28 05:30:57;;;;;;;;;;;;;;;;;;5055782;28;19931;-44
2022/04/28 05:33:22;;;;;;;;;;;;;;;;;;5055259;28;20000;-43
2022/04/28 05:35:48;;;;;;;;;;;;;;;;;;5054163;28;20418;-43
2022/04/28 05:38:13;;;;;;;;;;;;;;;;;;5055469;28;20344;-43
2022/04/28 05:40:38;;;;;;;;;;;;;;;;;;5055326;28;19909;-43
2022/04/28 05:45:47;;;;;;;;;;;;;;;;;;5055243;28;20367;-43
2022/04/28 05:48:12;;;;;;;;;;;;;;;;;;5055345;28;19913;-42
2022/04/28 05:50:37;;;;;;;;;;;;;;;;;;5055248;28;19909;-42
2022/04/28 05:53:02;;;;;;;;;;;;;;;;;;5054888;28;19909;-42
2022/04/28 05:55:27;;;;;;;;;;;;;;;;;;5055155;28;20364;-43
2022/04/28 05:57:52;;;;;;;;;;;;;;;;;;5055226;28;19909;-43
2022/04/28 06:00:17;;;;;;;;;;;;;;;;;;5055355;28;19996;-43
2022/04/28 06:02:43;;;;;;;;;;;;;;;;;;5055671;28;19913;-41
2022/04/28 06:05:08;;;;;;;;;;;;;;;;;;5055579;28;19909;-41
2022/04/28 06:07:33;;;;;;;;;;;;;;;;;;5055316;28;19952;-42
2022/04/28 06:09:59;;;;;;;;;;;;;;;;;;5055579;28;19951;-42
2022/04/28 06:12:25;;;;;;;;;;;;;;;;;;5055429;28;20291;-42
2022/04/28 06:14:50;;;;;;;;;;;;;;;;;;5055546;28;19951;-43
2022/04/28 06:17:15;;;;;;;;;;;;;;;;;;5054881;28;20272;-43
2022/04/28 06:19:40;;;;;;;;;;;;;;;;;;5053727;28;19913;-42
2022/04/28 06:22:06;;;;;;;;;;;;;;;;;;5054989;28;20375;-42
2022/04/28 06:24:31;;;;;;;;;;;;;;;;;;5054720;28;19912;-42
2022/04/28 06:26:56;;;;;;;;;;;;;;;;;;5054561;28;19924;-42
2022/04/28 06:29:21;;;;;;;;;;;;;;;;;;5054831;28;19919;-42
2022/04/28 06:31:46;;;;;;;;;;;;;;;;;;5054788;28;20420;-42
2022/04/28 06:34:11;;;;;;;;;;;;;;;;;;5054874;28;20359;-42
2022/04/28 06:36:36;;;;;;;;;;;;;;;;;;5055002;28;19913;-43
2022/04/28 06:39:02;;;;;;;;;;;;;;;;;;5055039;28;20007;-42
2022/04/28 06:41:27;;;;;;;;;;;;;;;;;;5054785;28;20318;-42
2022/04/28 06:43:52;;;;;;;;;;;;;;;;;;5054857;28;19909;-42
2022/04/28 06:46:17;;;;;;;;;;;;;;;;;;5054948;28;19913;-42
2022/04/28 06:48:43;;;;;;;;;;;;;;;;;;5054733;28;19937;-43
2022/04/28 06:51:08;;;;;;;;;;;;;;;;;;5054621;28;19915;-43
2022/04/28 06:53:33;;;;;;;;;;;;;;;;;;5054656;28;20394;-42
2022/04/28 06:55:58;;;;;;;;;;;;;;;;;;5054148;28;20316;-44
2022/04/28 06:58:23;;;;;;;;;;;;;;;;;;5054675;28;19912;-42
2022/04/28 07:00:49;;;;;;;;;;;;;;;;;;5054794;28;20318;-43
2022/04/28 07:03:14;;;;;;;;;;;;;;;;;;5055314;28;20299;-43
2022/04/28 07:05:40;;;;;;;;;;;;;;;;;;5058472;28;19913;-42
2022/04/28 07:08:05;;;;;;;;;;;;;;;;;;5058269;28;19939;-42
2022/04/28 07:10:30;;;;;;;;;;;;;;;;;;5058092;28;20360;-42
2022/04/28 07:12:55;;;;;;;;;;;;;;;;;;5058154;28;20092;-43
2022/04/28 07:15:20;;;;;;;;;;;;;;;;;;5058028;28;19916;-43
2022/04/28 07:17:45;;;;;;;;;;;;;;;;;;5057859;28;19908;-43
2022/04/28 07:20:10;;;;;;;;;;;;;;;;;;5056414;28;19909;-41
2022/04/28 07:22:35;;;;;;;;;;;;;;;;;;5057765;28;19916;-42
2022/04/28 07:25:00;;;;;;;;;;;;;;;;;;5057298;28;19921;-43
2022/04/28 07:27:26;;;;;;;;;;;;;;;;;;5057082;28;19921;-43
2022/04/28 07:29:51;;;;;;;;;;;;;;;;;;5057598;28;19951;-42
2022/04/28 07:32:16;;;;;;;;;;;;;;;;;;5057721;28;19909;-42
2022/04/28 07:34:41;;;;;;;;;;;;;;;;;;5057510;28;19999;-42
2022/04/28 07:37:06;;;;;;;;;;;;;;;;;;5057383;28;20364;-42
2022/04/28 07:39:31;;;;;;;;;;;;;;;;;;5055892;28;19909;-43
2022/04/28 07:41:57;;;;;;;;;;;;;;;;;;5057443;28;19909;-42
2022/04/28 07:44:22;;;;;;;;;;;;;;;;;;5057258;28;19909;-43
2022/04/28 07:46:47;;;;;;;;;;;;;;;;;;5057187;28;19986;-43
2022/04/28 07:49:12;;;;;;;;;;;;;;;;;;5057052;28;19959;-43
2022/04/28 07:51:37;;;;;;;;;;;;;;;;;;5057492;28;19962;-43
2022/04/28 07:54:02;;;;;;;;;;;;;;;;;;5057126;28;19916;-43
2022/04/28 07:56:28;;;;;;;;;;;;;;;;;;5056876;28;19939;-43
2022/04/28 07:58:53;;;;;;;;;;;;;;;;;;5057341;28;19909;-43
2022/04/28 08:01:18;;;;;;;;;;;;;;;;;;5056005;28;19909;-43
2022/04/28 08:03:43;;;;;;;;;;;;;;;;;;5057053;28;19909;-42
2022/04/28 08:06:13;;;;;;;;;;;;;;;;;;5056905;28;19916;-43
2022/04/28 08:08:38;;;;;;;;;;;;;;;;;;5057161;28;19913;-43
2022/04/28 08:11:03;;;;;;;;;;;;;;;;;;5057119;28;20283;-42
2022/04/28 08:13:28;;;;;;;;;;;;;;;;;;5056971;28;20272;-43
2022/04/28 08:15:57;;;;;;;;;;;;;;;;;;5056517;28;20326;-43
2022/04/28 08:18:22;;;;;;;;;;;;;;;;;;5056786;28;19909;-46
2022/04/28 08:20:47;;;;;;;;;;;;;;;;;;5056766;28;19909;-43
2022/04/28 08:23:13;;;;;;;;;;;;;;;;;;5056945;28;19923;-43
2022/04/28 08:25:38;;;;;;;;;;;;;;;;;;5055885;28;20008;-44
2022/04/28 08:28:03;;;;;;;;;;;;;;;;;;5056339;28;19928;-43
2022/04/28 08:30:28;;;;;;;;;;;;;;;;;;5056634;28;19970;-43
2022/04/28 08:32:53;;;;;;;;;;;;;;;;;;5056565;28;19913;-43
2022/04/28 08:35:18;;;;;;;;;;;;;;;;;;5056320;28;19909;-43
2022/04/28 08:37:43;;;;;;;;;;;;;;;;;;5056532;28;19909;-44
2022/04/28 08:40:08;;;;;;;;;;;;;;;;;;5056374;28;20011;-43
2022/04/28 08:42:34;;;;;;;;;;;;;;;;;;5056239;28;19908;-43
2022/04/28 08:44:59;;;;;;;;;;;;;;;;;;5056146;28;19913;-43
2022/04/28 08:47:25;;;;;;;;;;;;;;;;;;5055910;28;20299;-43
2022/04/28 08:49:50;;;;;;;;;;;;;;;;;;5056135;28;20383;-43
2022/04/28 08:52:15;;;;;;;;;;;;;;;;;;5056013;28;19913;-44
2022/04/28 08:54:40;;;;;;;;;;;;;;;;;;5055628;28;19913;-44
2022/04/28 08:57:05;;;;;;;;;;;;;;;;;;5055543;28;20332;-43
2022/04/28 08:59:30;;;;;;;;;;;;;;;;;;5055747;28;20022;-43
2022/04/28 09:01:56;;;;;;;;;;;;;;;;;;5055545;28;19924;-45
2022/04/28 09:04:22;;;;;;;;;;;;;;;;;;5056004;28;19913;-43
2022/04/28 09:06:47;;;;;;;;;;;;;;;;;;5055390;28;20348;-44
2022/04/28 09:09:12;;;;;;;;;;;;;;;;;;5055167;28;20010;-44
2022/04/28 09:11:40;;;;;;;;;;;;;;;;;;5055180;28;20339;-43
2022/04/28 09:14:14;;;;;;;;;;;;;;;;;;5055173;28;20007;-43
2022/04/28 09:16:41;;;;;;;;;;;;;;;;;;5055288;28;19913;-44
2022/04/28 09:19:06;;;;;;;;;;;;;;;;;;5055245;28;19958;-44
2022/04/28 09:21:31;;;;;;;;;;;;;;;;;;5054907;28;19905;-43
2022/04/28 09:23:57;;;;;;;;;;;;;;;;;;5053780;28;19909;-45
2022/04/28 09:26:22;;;;;;;;;;;;;;;;;;5054105;28;19920;-43
2022/04/28 09:28:50;;;;;;;;;;;;;;;;;;5055066;28;19912;-44
2022/04/28 09:31:15;;;;;;;;;;;;;;;;;;5055193;28;19909;-44
2022/04/28 09:33:41;;;;;;;;;;;;;;;;;;5055021;28;19909;-45
2022/04/28 09:36:06;;;;;;;;;;;;;;;;;;5055122;28;19924;-44
2022/04/28 09:38:32;;;;;;;;;;;;;;;;;;5054965;28;19952;-44
2022/04/28 09:43:40;;;;;;;;;;;;;;;;;;5055307;28;19920;-43
2022/04/28 09:46:07;;;;;;;;;;;;;;;;;;5054947;28;19921;-43
2022/04/28 09:48:33;;;;;;;;;;;;;;;;;;5054944;28;20007;-43
2022/04/28 09:50:58;;;;;;;;;;;;;;;;;;5054106;28;19944;-42
2022/04/28 09:53:24;;;;;;;;;;;;;;;;;;5058305;28;19916;-44
2022/04/28 09:55:50;;;;;;;;;;;;;;;;;;5057421;28;20003;-43
2022/04/28 09:58:15;;;;;;;;;;;;;;;;;;5056026;28;19954;-42
2022/04/28 10:00:40;;;;;;;;;;;;;;;;;;5055132;28;20303;-42
2022/04/28 10:03:07;;;;;;;;;;;;;;;;;;5055791;28;19908;-43
2022/04/28 10:05:33;;;;;;;;;;;;;;;;;;5055719;28;19909;-42
2022/04/28 10:07:59;;;;;;;;;;;;;;;;;;5055822;28;19913;-42
2022/04/28 10:10:24;;;;;;;;;;;;;;;;;;5053666;28;19916;-43
2022/04/28 10:12:49;;;;;;;;;;;;;;;;;;5053147;28;19909;-42
2022/04/28 10:15:14;;;;;;;;;;;;;;;;;;5048107;28;19921;-42
2022/04/28 10:17:40;;;;;;;;;;;;;;;;;;5034967;28;19913;-42
2022/04/28 10:20:05;;;;;;;;;;;;;;;;;;5034992;28;19913;-45
2022/04/28 10:22:30;;;;;;;;;;;;;;;;;;5035967;28;19916;-44
2022/04/28 10:33:07;;;;;;;;;;;;;;;;;;5054248;28;20422;-44
2022/04/28 10:35:33;;;;;;;;;;;;;;;;;;5053998;28;19913;-43
2022/04/28 10:37:58;;;;;;;;;;;;;;;;;;5055867;28;19913;-42
2022/04/28 10:40:23;;;;;;;;;;;;;;;;;;5056778;28;20363;-44
2022/04/28 10:42:48;;;;;;;;;;;;;;;;;;5058263;28;19905;-43
2022/04/28 10:45:13;;;;;;;;;;;;;;;;;;5058204;28;20348;-44
2022/04/28 10:47:38;;;;;;;;;;;;;;;;;;5057882;28;20272;-45
2022/04/28 10:50:03;;;;;;;;;;;;;;;;;;5057531;28;19908;-43
2022/04/28 10:52:29;;;;;;;;;;;;;;;;;;5057693;28;19962;-43
2022/04/28 10:54:54;;;;;;;;;;;;;;;;;;5057557;28;19913;-44
2022/04/28 10:57:19;;;;;;;;;;;;;;;;;;5057668;28;19919;-43
2022/04/28 10:59:45;;;;;;;;;;;;;;;;;;5057535;28;19909;-43
2022/04/28 11:02:10;;;;;;;;;;;;;;;;;;5057782;28;19905;-44
2022/04/28 11:04:35;;;;;;;;;;;;;;;;;;5057699;28;19915;-43
2022/04/28 11:07:00;;;;;;;;;;;;;;;;;;5057596;28;20334;-44
2022/04/28 11:09:25;;;;;;;;;;;;;;;;;;5056168;28;20016;-43
2022/04/28 11:11:50;;;;;;;;;;;;;;;;;;5063076;28;19916;-44
2022/04/28 11:14:15;;;;;;;;;;;;;;;;;;5057795;28;19916;-43
2022/04/28 11:16:41;;;;;;;;;;;;;;;;;;5057709;28;19999;-43
2022/04/28 11:19:07;;;;;;;;;;;;;;;;;;5057498;28;20054;-44
2022/04/28 11:21:33;;;;;;;;;;;;;;;;;;5057504;28;19915;-43
2022/04/28 11:23:58;;;;;;;;;;;;;;;;;;5057195;28;19909;-43
2022/04/28 11:26:23;;;;;;;;;;;;;;;;;;5056710;28;19967;-43
2022/04/28 11:28:48;;;;;;;;;;;;;;;;;;5057319;28;19920;-44
2022/04/28 11:31:14;;;;;;;;;;;;;;;;;;5056989;28;19952;-44
2022/04/28 11:33:40;;;;;;;;;;;;;;;;;;5057035;28;20336;-43
2022/04/28 11:36:05;;;;;;;;;;;;;;;;;;5056907;28;20381;-45
2022/04/28 11:38:31;;;;;;;;;;;;;;;;;;5056838;28;20267;-45
2022/04/28 11:40:56;;;;;;;;;;;;;;;;;;5056772;28;19916;-44
2022/04/28 11:43:21;;;;;;;;;;;;;;;;;;5056832;28;20372;-44
2022/04/28 11:45:47;;;;;;;;;;;;;;;;;;5056866;28;19916;-45
2022/04/28 11:48:13;;;;;;;;;;;;;;;;;;5056598;28;19982;-43
2022/04/28 11:50:38;;;;;;;;;;;;;;;;;;5055845;28;20279;-44
2022/04/28 11:53:06;;;;;;;;;;;;;;;;;;5056615;28;20038;-43
2022/04/28 11:55:33;;;;;;;;;;;;;;;;;;5056224;28;19912;-44
2022/04/28 11:57:58;;;;;;;;;;;;;;;;;;5055870;28;19913;-43
2022/04/28 12:00:27;;;;;;;;;;;;;;;;;;5055549;28;19967;-43
2022/04/28 12:02:53;;;;;;;;;;;;;;;;;;5056162;28;19913;-43
2022/04/28 12:05:29;;;;;;;;;;;;;;;;;;5056298;28;19947;-43
2022/04/28 12:07:55;;;;;;;;;;;;;;;;;;5056232;28;19917;-44
2022/04/28 12:15:47;;;;;;;;;;;;;;;;;;5056557;28;19916;-43
2022/04/28 12:20:56;;;;;;;;;;;;;;;;;;5055883;28;19996;-44
2022/04/28 12:23:22;;;;;;;;;;;;;;;;;;5055878;28;19913;-43
2022/04/28 12:25:48;;;;;;;;;;;;;;;;;;5055323;28;20026;-44
2022/04/28 12:28:13;;;;;;;;;;;;;;;;;;5056104;28;19975;-42
2022/04/28 12:30:38;;;;;;;;;;;;;;;;;;5055858;28;19912;-42
2022/04/28 12:33:03;;;;;;;;;;;;;;;;;;5055645;28;20318;-43
2022/04/28 12:35:30;;;;;;;;;;;;;;;;;;5055469;28;19917;-43
2022/04/28 12:37:55;;;;;;;;;;;;;;;;;;5055830;28;19905;-43
2022/04/28 12:40:20;;;;;;;;;;;;;;;;;;5055504;28;19913;-44
2022/04/28 12:42:45;;;;;;;;;;;;;;;;;;5055503;28;19905;-44
2022/04/28 12:45:10;;;;;;;;;;;;;;;;;;5055499;28;19908;-43
2022/04/28 12:47:35;;;;;;;;;;;;;;;;;;5055387;28;19913;-42
2022/04/28 12:50:02;;;;;;;;;;;;;;;;;;5055568;28;19909;-42
2022/04/28 12:52:27;;;;;;;;;;;;;;;;;;5055392;28;19909;-42
2022/04/28 12:54:52;;;;;;;;;;;;;;;;;;5055162;28;20386;-45
2022/04/28 12:57:17;;;;;;;;;;;;;;;;;;5055228;28;19909;-44
2022/04/28 12:59:43;;;;;;;;;;;;;;;;;;5054832;28;19913;-44
2022/04/28 13:02:08;;;;;;;;;;;;;;;;;;5055157;28;19909;-43
2022/04/28 13:04:33;;;;;;;;;;;;;;;;;;5055391;28;19915;-43
2022/04/28 13:07:01;;;;;;;;;;;;;;;;;;5055299;28;19915;-44
2022/04/28 13:09:28;;;;;;;;;;;;;;;;;;5055295;28;19912;-44
2022/04/28 13:11:53;;;;;;;;;;;;;;;;;;5055099;28;19908;-43
2022/04/28 13:14:18;;;;;;;;;;;;;;;;;;5055299;28;19966;-45
2022/04/28 13:16:44;;;;;;;;;;;;;;;;;;5055231;28;20394;-42
2022/04/28 13:19:09;;;;;;;;;;;;;;;;;;5054985;28;19905;-43
2022/04/28 13:21:34;;;;;;;;;;;;;;;;;;5054894;28;19909;-43
2022/04/28 13:23:59;;;;;;;;;;;;;;;;;;5055034;28;19920;-44
2022/04/28 13:26:25;;;;;;;;;;;;;;;;;;5056992;22;20468;-43
2022/04/28 13:28:50;;;;;;;;;;;;;;;;;;5034919;28;19913;-43
2022/04/28 13:31:15;;;;;;;;;;;;;;;;;;5034898;28;19909;-43
2022/04/28 13:33:42;;;;;;;;;;;;;;;;;;5034258;28;20305;-44
2022/04/28 13:36:07;;;;;;;;;;;;;;;;;;5034571;28;19964;-44
2022/04/28 13:38:33;;;;;;;;;;;;;;;;;;5034666;28;19909;-43
2022/04/28 13:40:58;;;;;;;;;;;;;;;;;;5034684;28;19916;-43
2022/04/28 13:43:23;;;;;;;;;;;;;;;;;;5047810;28;19955;-43
2022/04/28 13:45:48;;;;;;;;;;;;;;;;;;5054515;28;19908;-44
2022/04/28 13:48:16;;;;;;;;;;;;;;;;;;5054505;28;19920;-43
2022/04/28 13:50:41;;;;;;;;;;;;;;;;;;5054467;28;20283;-44
2022/04/28 13:53:06;;;;;;;;;;;;;;;;;;5054522;28;19917;-44
2022/04/28 13:55:31;;;;;;;;;;;;;;;;;;5054199;28;19920;-43
2022/04/28 13:57:57;;;;;;;;;;;;;;;;;;5054697;28;19909;-44
2022/04/28 14:00:22;;;;;;;;;;;;;;;;;;5071156;28;19912;-43
2022/04/28 14:02:47;;;;;;;;;;;;;;;;;;5074509;28;19915;-44
2022/04/28 14:05:13;;;;;;;;;;;;;;;;;;5074346;28;19996;-44
2022/04/28 14:07:38;;;;;;;;;;;;;;;;;;5074416;28;19908;-44
2022/04/28 14:10:03;;;;;;;;;;;;;;;;;;5074347;28;19931;-44
2022/04/28 14:12:28;;;;;;;;;;;;;;;;;;5075567;28;19962;-47
2022/04/28 14:14:53;;;;;;;;;;;;;;;;;;5078484;28;19908;-43
2022/04/28 14:17:18;;;;;;;;;;;;;;;;;;5078359;28;20275;-43
2022/04/28 14:19:45;;;;;;;;;;;;;;;;;;5078315;28;19916;-45
2022/04/28 14:22:15;;;;;;;;;;;;;;;;;;5078400;28;19920;-44
2022/04/28 14:24:40;;;;;;;;;;;;;;;;;;5073562;28;20013;-43
2022/04/28 14:27:05;;;;;;;;;;;;;;;;;;5057898;28;19929;-44
2022/04/28 14:29:30;;;;;;;;;;;;;;;;;;5058055;28;19956;-44
2022/04/28 14:31:55;;;;;;;;;;;;;;;;;;5057990;28;20355;-44
2022/04/28 14:34:21;;;;;;;;;;;;;;;;;;5057904;28;19909;-44
2022/04/28 14:36:49;;;;;;;;;;;;;;;;;;5057867;28;19909;-44
2022/04/28 14:39:14;;;;;;;;;;;;;;;;;;5058025;28;20427;-44
2022/04/28 14:41:40;;;;;;;;;;;;;;;;;;5057746;28;19913;-44
2022/04/28 14:44:05;;;;;;;;;;;;;;;;;;5057755;28;19936;-44
2022/04/28 14:46:30;;;;;;;;;;;;;;;;;;5057703;28;19916;-44
2022/04/28 14:54:23;;;;;;;;;;;;;;;;;;5057435;28;19967;-45
2022/04/28 14:56:49;;;;;;;;;;;;;;;;;;5057535;28;19913;-44
2022/04/28 14:59:15;;;;;;;;;;;;;;;;;;5057407;28;19905;-42
2022/04/28 15:01:40;;;;;;;;;;;;;;;;;;5057476;28;19915;-44
2022/04/28 15:04:05;;;;;;;;;;;;;;;;;;5057349;28;19908;-44
2022/04/28 15:06:31;;;;;;;;;;;;;;;;;;5057310;28;20431;-43
2022/04/28 15:08:56;;;;;;;;;;;;;;;;;;5057294;28;20051;-44
2022/04/28 15:11:21;;;;;;;;;;;;;;;;;;5057481;28;19916;-44
2022/04/28 15:13:46;;;;;;;;;;;;;;;;;;5057314;28;19932;-43
2022/04/28 15:16:11;;;;;;;;;;;;;;;;;;5057233;28;19978;-43
2022/04/28 15:18:36;;;;;;;;;;;;;;;;;;5057188;28;19931;-43
2022/04/28 15:21:01;;;;;;;;;;;;;;;;;;5057078;28;19952;-45
2022/04/28 15:23:26;;;;;;;;;;;;;;;;;;5056260;28;20364;-43
2022/04/28 15:25:52;;;;;;;;;;;;;;;;;;5056177;28;19962;-44
2022/04/28 15:28:19;;;;;;;;;;;;;;;;;;5056976;28;19912;-42
2022/04/28 15:30:44;;;;;;;;;;;;;;;;;;5057055;28;19909;-45
2022/04/28 15:33:09;;;;;;;;;;;;;;;;;;5056857;28;20348;-43
2022/04/28 15:35:34;;;;;;;;;;;;;;;;;;5056754;28;20367;-44
2022/04/28 15:37:59;;;;;;;;;;;;;;;;;;5056857;28;19996;-45
2022/04/28 15:40:24;;;;;;;;;;;;;;;;;;5055344;28;19916;-43
2022/04/28 15:42:50;;;;;;;;;;;;;;;;;;5056743;28;20365;-45
2022/04/28 15:45:15;;;;;;;;;;;;;;;;;;5056681;28;19909;-44
2022/04/28 15:47:40;;;;;;;;;;;;;;;;;;5056623;28;19909;-45
2022/04/28 15:50:05;;;;;;;;;;;;;;;;;;5056685;28;20360;-44
2022/04/28 15:52:30;;;;;;;;;;;;;;;;;;5056509;28;19932;-44
2022/04/28 15:54:55;;;;;;;;;;;;;;;;;;5054914;28;19939;-45
2022/04/28 15:57:21;;;;;;;;;;;;;;;;;;5055768;28;19936;-44
2022/04/28 15:59:46;;;;;;;;;;;;;;;;;;5056372;28;19916;-44
2022/04/28 16:02:11;;;;;;;;;;;;;;;;;;5056475;28;20384;-44
2022/04/28 16:04:37;;;;;;;;;;;;;;;;;;5056348;28;20008;-45
2022/04/28 16:07:02;;;;;;;;;;;;;;;;;;5056028;28;20340;-44
2022/04/28 16:09:27;;;;;;;;;;;;;;;;;;5056298;28;19952;-44
2022/04/28 16:11:52;;;;;;;;;;;;;;;;;;5056113;28;19955;-44
2022/04/28 16:14:17;;;;;;;;;;;;;;;;;;5056276;28;19915;-45
2022/04/28 16:16:42;;;;;;;;;;;;;;;;;;5056109;28;19916;-44
2022/04/28 16:19:07;;;;;;;;;;;;;;;;;;5056422;28;19905;-43
2022/04/28 16:21:32;;;;;;;;;;;;;;;;;;5056191;28;19915;-44
2022/04/28 16:23:57;;;;;;;;;;;;;;;;;;5055819;28;20290;-43
2022/04/28 16:26:23;;;;;;;;;;;;;;;;;;5055270;28;20352;-44
2022/04/28 16:28:48;;;;;;;;;;;;;;;;;;5055957;28;19913;-43
2022/04/28 16:31:13;;;;;;;;;;;;;;;;;;5055877;28;20356;-44
2022/04/28 16:33:38;;;;;;;;;;;;;;;;;;5055699;28;20339;-43
2022/04/28 16:36:03;;;;;;;;;;;;;;;;;;5052365;28;19920;-43
2022/04/28 16:38:29;;;;;;;;;;;;;;;;;;5055614;28;19916;-45
2022/04/28 16:40:54;;;;;;;;;;;;;;;;;;5055697;28;19916;-43
2022/04/28 16:43:19;;;;;;;;;;;;;;;;;;5071167;28;19909;-43
2022/04/28 16:45:44;;;;;;;;;;;;;;;;;;5055616;28;19916;-43
2022/04/28 16:48:09;;;;;;;;;;;;;;;;;;5055460;28;19947;-45
2022/04/28 16:50:35;;;;;;;;;;;;;;;;;;5055429;28;19909;-43
2022/04/28 16:53:00;;;;;;;;;;;;;;;;;;5055674;28;19959;-44
2022/04/28 16:55:25;;;;;;;;;;;;;;;;;;5054422;28;19913;-44
2022/04/28 16:57:50;;;;;;;;;;;;;;;;;;5055054;28;19983;-45
2022/04/28 17:00:16;;;;;;;;;;;;;;;;;;5055374;28;19912;-45
2022/04/28 17:05:25;;;;;;;;;;;;;;;;;;5055283;28;20386;-44
2022/04/28 17:07:50;;;;;;;;;;;;;;;;;;5054624;28;19908;-44
2022/04/28 17:10:15;;;;;;;;;;;;;;;;;;5053893;28;19920;-44
2022/04/28 17:12:41;;;;;;;;;;;;;;;;;;5054761;28;19913;-45
2022/04/28 17:15:06;;;;;;;;;;;;;;;;;;5055114;28;19916;-45
2022/04/28 17:17:31;;;;;;;;;;;;;;;;;;5055089;28;19909;-44
2022/04/28 17:19:56;;;;;;;;;;;;;;;;;;5055045;28;19909;-44